sensor_id;sensor_type;location;lat;lon;timestamp;P1;durP1;ratioP1;P2;durP2;ratioP2
77324;SDS011;66387;53.440;10.390;2023-11-19T00:02:06;10.48;;;6.55;;
77324;SDS011;66387;53.440;10.390;2023-11-19T00:04:33;9.23;;;6.18;;
77324;SDS011;66387;53.440;10.390;2023-11-19T00:06:58;8.50;;;5.67;;
77324;SDS011;66387;53.440;10.390;2023-11-19T00:09:28;9.68;;;6.00;;
77324;SDS011;66387;53.440;10.390;2023-11-19T00:11:53;7.50;;;5.87;;
77324;SDS011;66387;53.440;10.390;2023-11-19T00:14:18;7.97;;;5.53;;
77324;SDS011;66387;53.440;10.390;2023-11-19T00:16:44;10.10;;;5.47;;
77324;SDS011;66387;53.440;10.390;2023-11-19T00:19:09;8.50;;;5.05;;
77324;SDS011;66387;53.440;10.390;2023-11-19T00:21:34;6.73;;;4.63;;
77324;SDS011;66387;53.440;10.390;2023-11-19T00:23:59;9.57;;;5.47;;
77324;SDS011;66387;53.440;10.390;2023-11-19T00:26:25;9.13;;;5.20;;
77324;SDS011;66387;53.440;10.390;2023-11-19T00:28:50;5.17;;;3.50;;
77324;SDS011;66387;53.440;10.390;2023-11-19T00:31:15;5.83;;;4.17;;
77324;SDS011;66387;53.440;10.390;2023-11-19T00:33:40;6.93;;;4.03;;
77324;SDS011;66387;53.440;10.390;2023-11-19T00:36:06;8.27;;;4.07;;
77324;SDS011;66387;53.440;10.390;2023-11-19T00:38:31;6.75;;;4.00;;
77324;SDS011;66387;53.440;10.390;2023-11-19T00:40:57;5.67;;;3.50;;
77324;SDS011;66387;53.440;10.390;2023-11-19T00:43:22;4.80;;;3.57;;
77324;SDS011;66387;53.440;10.390;2023-11-19T00:45:47;4.73;;;3.53;;
77324;SDS011;66387;53.440;10.390;2023-11-19T00:48:15;5.40;;;3.70;;
77324;SDS011;66387;53.440;10.390;2023-11-19T00:50:40;4.68;;;3.33;;
77324;SDS011;66387;53.440;10.390;2023-11-19T00:55:34;5.43;;;3.53;;
77324;SDS011;66387;53.440;10.390;2023-11-19T00:57:59;5.17;;;3.07;;
77324;SDS011;66387;53.440;10.390;2023-11-19T01:00:24;5.43;;;3.47;;
77324;SDS011;66387;53.440;10.390;2023-11-19T01:02:52;5.25;;;3.13;;
77324;SDS011;66387;53.440;10.390;2023-11-19T01:05:17;4.63;;;2.90;;
77324;SDS011;66387;53.440;10.390;2023-11-19T01:07:46;5.38;;;3.35;;
77324;SDS011;66387;53.440;10.390;2023-11-19T01:10:12;5.47;;;3.00;;
77324;SDS011;66387;53.440;10.390;2023-11-19T01:12:37;3.75;;;3.03;;
77324;SDS011;66387;53.440;10.390;2023-11-19T01:15:03;4.13;;;2.90;;
77324;SDS011;66387;53.440;10.390;2023-11-19T01:17:29;5.03;;;4.07;;
77324;SDS011;66387;53.440;10.390;2023-11-19T01:19:56;3.45;;;2.65;;
77324;SDS011;66387;53.440;10.390;2023-11-19T01:22:21;4.07;;;3.00;;
77324;SDS011;66387;53.440;10.390;2023-11-19T01:24:46;4.83;;;3.63;;
77324;SDS011;66387;53.440;10.390;2023-11-19T01:27:12;3.87;;;3.10;;
77324;SDS011;66387;53.440;10.390;2023-11-19T01:29:37;3.83;;;2.77;;
77324;SDS011;66387;53.440;10.390;2023-11-19T01:32:03;4.25;;;2.95;;
77324;SDS011;66387;53.440;10.390;2023-11-19T01:34:29;4.38;;;2.63;;
77324;SDS011;66387;53.440;10.390;2023-11-19T01:36:54;3.70;;;2.70;;
77324;SDS011;66387;53.440;10.390;2023-11-19T01:39:19;4.33;;;2.83;;
77324;SDS011;66387;53.440;10.390;2023-11-19T01:41:46;3.83;;;2.80;;
77324;SDS011;66387;53.440;10.390;2023-11-19T01:44:11;3.73;;;2.50;;
77324;SDS011;66387;53.440;10.390;2023-11-19T01:49:08;3.10;;;2.17;;
77324;SDS011;66387;53.440;10.390;2023-11-19T01:51:34;3.63;;;2.20;;
77324;SDS011;66387;53.440;10.390;2023-11-19T01:54:00;3.10;;;2.10;;
77324;SDS011;66387;53.440;10.390;2023-11-19T01:56:26;3.45;;;2.13;;
77324;SDS011;66387;53.440;10.390;2023-11-19T01:58:52;3.67;;;2.38;;
77324;SDS011;66387;53.440;10.390;2023-11-19T02:01:19;2.40;;;1.85;;
77324;SDS011;66387;53.440;10.390;2023-11-19T02:03:45;2.53;;;1.90;;
77324;SDS011;66387;53.440;10.390;2023-11-19T02:06:12;2.40;;;1.90;;
77324;SDS011;66387;53.440;10.390;2023-11-19T02:08:37;2.97;;;1.70;;
77324;SDS011;66387;53.440;10.390;2023-11-19T02:11:03;2.97;;;2.05;;
77324;SDS011;66387;53.440;10.390;2023-11-19T02:13:31;3.80;;;2.30;;
77324;SDS011;66387;53.440;10.390;2023-11-19T02:15:57;3.45;;;1.85;;
77324;SDS011;66387;53.440;10.390;2023-11-19T02:18:23;2.83;;;1.87;;
77324;SDS011;66387;53.440;10.390;2023-11-19T02:20:52;2.72;;;1.73;;
77324;SDS011;66387;53.440;10.390;2023-11-19T02:28:51;1.92;;;1.40;;
77324;SDS011;66387;53.440;10.390;2023-11-19T02:31:17;2.72;;;1.95;;
77324;SDS011;66387;53.440;10.390;2023-11-19T02:33:44;3.45;;;2.15;;
77324;SDS011;66387;53.440;10.390;2023-11-19T02:36:09;2.65;;;2.00;;
77324;SDS011;66387;53.440;10.390;2023-11-19T02:38:35;2.78;;;1.90;;
77324;SDS011;66387;53.440;10.390;2023-11-19T02:41:04;2.33;;;1.60;;
77324;SDS011;66387;53.440;10.390;2023-11-19T02:43:30;2.58;;;1.95;;
77324;SDS011;66387;53.440;10.390;2023-11-19T02:45:58;2.65;;;2.15;;
77324;SDS011;66387;53.440;10.390;2023-11-19T02:48:25;3.25;;;2.00;;
77324;SDS011;66387;53.440;10.390;2023-11-19T02:50:50;2.80;;;1.97;;
77324;SDS011;66387;53.440;10.390;2023-11-19T02:53:17;2.28;;;1.67;;
77324;SDS011;66387;53.440;10.390;2023-11-19T02:55:42;2.60;;;2.05;;
77324;SDS011;66387;53.440;10.390;2023-11-19T02:58:13;2.22;;;1.98;;
77324;SDS011;66387;53.440;10.390;2023-11-19T03:00:45;2.67;;;1.88;;
77324;SDS011;66387;53.440;10.390;2023-11-19T03:03:17;2.72;;;2.25;;
77324;SDS011;66387;53.440;10.390;2023-11-19T03:05:45;3.08;;;2.22;;
77324;SDS011;66387;53.440;10.390;2023-11-19T03:08:11;2.83;;;2.47;;
77324;SDS011;66387;53.440;10.390;2023-11-19T03:10:37;3.60;;;2.35;;
77324;SDS011;66387;53.440;10.390;2023-11-19T03:13:02;3.93;;;2.70;;
77324;SDS011;66387;53.440;10.390;2023-11-19T03:15:28;4.07;;;2.70;;
77324;SDS011;66387;53.440;10.390;2023-11-19T03:17:53;3.70;;;2.53;;
77324;SDS011;66387;53.440;10.390;2023-11-19T03:20:19;3.35;;;2.28;;
77324;SDS011;66387;53.440;10.390;2023-11-19T03:22:45;3.70;;;2.75;;
77324;SDS011;66387;53.440;10.390;2023-11-19T03:25:11;2.70;;;2.25;;
77324;SDS011;66387;53.440;10.390;2023-11-19T03:27:39;2.65;;;2.30;;
77324;SDS011;66387;53.440;10.390;2023-11-19T03:30:06;3.70;;;2.35;;
77324;SDS011;66387;53.440;10.390;2023-11-19T03:32:34;2.95;;;2.28;;
77324;SDS011;66387;53.440;10.390;2023-11-19T03:35:00;3.30;;;2.50;;
77324;SDS011;66387;53.440;10.390;2023-11-19T03:37:26;3.63;;;2.47;;
77324;SDS011;66387;53.440;10.390;2023-11-19T03:39:53;3.25;;;2.45;;
77324;SDS011;66387;53.440;10.390;2023-11-19T03:42:19;3.10;;;2.60;;
77324;SDS011;66387;53.440;10.390;2023-11-19T03:44:45;3.40;;;2.35;;
77324;SDS011;66387;53.440;10.390;2023-11-19T03:47:11;4.28;;;2.65;;
77324;SDS011;66387;53.440;10.390;2023-11-19T03:49:36;3.60;;;2.50;;
77324;SDS011;66387;53.440;10.390;2023-11-19T03:52:01;3.77;;;2.63;;
77324;SDS011;66387;53.440;10.390;2023-11-19T03:54:26;3.70;;;2.45;;
77324;SDS011;66387;53.440;10.390;2023-11-19T03:56:52;4.78;;;3.03;;
77324;SDS011;66387;53.440;10.390;2023-11-19T03:59:18;3.17;;;2.88;;
77324;SDS011;66387;53.440;10.390;2023-11-19T04:01:45;3.50;;;2.70;;
77324;SDS011;66387;53.440;10.390;2023-11-19T04:04:10;4.00;;;2.77;;
77324;SDS011;66387;53.440;10.390;2023-11-19T04:06:36;4.27;;;2.47;;
77324;SDS011;66387;53.440;10.390;2023-11-19T04:09:01;3.90;;;2.90;;
77324;SDS011;66387;53.440;10.390;2023-11-19T04:11:26;5.07;;;3.17;;
77324;SDS011;66387;53.440;10.390;2023-11-19T04:13:51;3.73;;;2.80;;
77324;SDS011;66387;53.440;10.390;2023-11-19T04:16:17;5.82;;;3.15;;
77324;SDS011;66387;53.440;10.390;2023-11-19T04:18:42;4.70;;;2.80;;
77324;SDS011;66387;53.440;10.390;2023-11-19T04:21:07;5.00;;;2.80;;
77324;SDS011;66387;53.440;10.390;2023-11-19T04:23:33;4.40;;;3.03;;
77324;SDS011;66387;53.440;10.390;2023-11-19T04:26:01;4.40;;;2.88;;
77324;SDS011;66387;53.440;10.390;2023-11-19T04:28:27;5.75;;;3.75;;
77324;SDS011;66387;53.440;10.390;2023-11-19T04:30:52;4.23;;;3.40;;
77324;SDS011;66387;53.440;10.390;2023-11-19T04:33:18;4.13;;;3.27;;
77324;SDS011;66387;53.440;10.390;2023-11-19T04:35:43;5.67;;;3.20;;
77324;SDS011;66387;53.440;10.390;2023-11-19T04:38:08;5.63;;;3.40;;
77324;SDS011;66387;53.440;10.390;2023-11-19T04:40:33;4.77;;;3.37;;
77324;SDS011;66387;53.440;10.390;2023-11-19T04:42:58;4.90;;;3.00;;
77324;SDS011;66387;53.440;10.390;2023-11-19T04:45:24;5.70;;;3.97;;
77324;SDS011;66387;53.440;10.390;2023-11-19T04:47:49;7.10;;;3.90;;
77324;SDS011;66387;53.440;10.390;2023-11-19T04:50:14;6.33;;;3.73;;
77324;SDS011;66387;53.440;10.390;2023-11-19T04:52:39;6.73;;;4.30;;
77324;SDS011;66387;53.440;10.390;2023-11-19T04:55:05;6.85;;;4.50;;
77324;SDS011;66387;53.440;10.390;2023-11-19T04:57:31;6.85;;;3.88;;
77324;SDS011;66387;53.440;10.390;2023-11-19T04:59:57;8.05;;;4.50;;
77324;SDS011;66387;53.440;10.390;2023-11-19T05:02:23;7.20;;;5.15;;
77324;SDS011;66387;53.440;10.390;2023-11-19T05:04:48;8.43;;;5.40;;
77324;SDS011;66387;53.440;10.390;2023-11-19T05:07:14;9.30;;;5.65;;
77324;SDS011;66387;53.440;10.390;2023-11-19T05:09:39;9.43;;;5.03;;
77324;SDS011;66387;53.440;10.390;2023-11-19T05:12:04;12.90;;;6.53;;
77324;SDS011;66387;53.440;10.390;2023-11-19T05:14:30;9.23;;;5.40;;
77324;SDS011;66387;53.440;10.390;2023-11-19T05:16:55;11.50;;;6.07;;
77324;SDS011;66387;53.440;10.390;2023-11-19T05:19:20;12.23;;;6.90;;
77324;SDS011;66387;53.440;10.390;2023-11-19T05:21:46;9.53;;;5.40;;
77324;SDS011;66387;53.440;10.390;2023-11-19T05:24:11;12.55;;;6.47;;
77324;SDS011;66387;53.440;10.390;2023-11-19T05:26:39;12.50;;;6.07;;
77324;SDS011;66387;53.440;10.390;2023-11-19T05:29:04;15.65;;;7.72;;
77324;SDS011;66387;53.440;10.390;2023-11-19T05:31:29;13.90;;;7.27;;
77324;SDS011;66387;53.440;10.390;2023-11-19T05:33:55;15.50;;;8.50;;
77324;SDS011;66387;53.440;10.390;2023-11-19T05:36:20;16.80;;;8.00;;
77324;SDS011;66387;53.440;10.390;2023-11-19T05:38:45;16.03;;;8.60;;
77324;SDS011;66387;53.440;10.390;2023-11-19T05:41:11;10.80;;;6.80;;
77324;SDS011;66387;53.440;10.390;2023-11-19T05:43:36;16.30;;;9.03;;
77324;SDS011;66387;53.440;10.390;2023-11-19T05:46:02;12.50;;;8.20;;
77324;SDS011;66387;53.440;10.390;2023-11-19T05:48:28;14.93;;;8.75;;
77324;SDS011;66387;53.440;10.390;2023-11-19T05:50:53;16.20;;;9.40;;
77324;SDS011;66387;53.440;10.390;2023-11-19T05:53:19;14.50;;;9.05;;
77324;SDS011;66387;53.440;10.390;2023-11-19T05:55:45;14.23;;;8.75;;
77324;SDS011;66387;53.440;10.390;2023-11-19T05:58:24;18.67;;;8.55;;
77324;SDS011;66387;53.440;10.390;2023-11-19T06:00:51;21.70;;;9.68;;
77324;SDS011;66387;53.440;10.390;2023-11-19T06:03:16;15.75;;;8.80;;
77324;SDS011;66387;53.440;10.390;2023-11-19T06:05:44;14.87;;;9.40;;
77324;SDS011;66387;53.440;10.390;2023-11-19T06:08:11;18.30;;;9.38;;
77324;SDS011;66387;53.440;10.390;2023-11-19T06:10:38;17.98;;;9.73;;
77324;SDS011;66387;53.440;10.390;2023-11-19T06:13:04;18.08;;;9.65;;
77324;SDS011;66387;53.440;10.390;2023-11-19T06:15:30;16.70;;;8.55;;
77324;SDS011;66387;53.440;10.390;2023-11-19T06:17:55;19.52;;;9.82;;
77324;SDS011;66387;53.440;10.390;2023-11-19T06:20:22;18.70;;;9.90;;
77324;SDS011;66387;53.440;10.390;2023-11-19T06:22:47;16.47;;;8.20;;
77324;SDS011;66387;53.440;10.390;2023-11-19T06:25:12;21.25;;;10.00;;
77324;SDS011;66387;53.440;10.390;2023-11-19T06:27:40;21.13;;;11.10;;
77324;SDS011;66387;53.440;10.390;2023-11-19T06:30:08;20.83;;;10.02;;
77324;SDS011;66387;53.440;10.390;2023-11-19T06:32:34;22.88;;;12.07;;
77324;SDS011;66387;53.440;10.390;2023-11-19T06:34:59;19.50;;;9.73;;
77324;SDS011;66387;53.440;10.390;2023-11-19T06:37:25;22.43;;;10.03;;
77324;SDS011;66387;53.440;10.390;2023-11-19T06:39:50;24.80;;;10.40;;
77324;SDS011;66387;53.440;10.390;2023-11-19T06:42:15;21.43;;;11.13;;
77324;SDS011;66387;53.440;10.390;2023-11-19T06:44:40;25.03;;;11.37;;
77324;SDS011;66387;53.440;10.390;2023-11-19T06:47:06;21.70;;;10.80;;
77324;SDS011;66387;53.440;10.390;2023-11-19T06:49:31;21.33;;;11.25;;
77324;SDS011;66387;53.440;10.390;2023-11-19T06:51:56;22.17;;;10.45;;
77324;SDS011;66387;53.440;10.390;2023-11-19T06:54:22;23.33;;;11.43;;
77324;SDS011;66387;53.440;10.390;2023-11-19T06:56:47;20.93;;;11.03;;
77324;SDS011;66387;53.440;10.390;2023-11-19T06:59:13;19.23;;;9.95;;
77324;SDS011;66387;53.440;10.390;2023-11-19T07:01:39;23.33;;;10.93;;
77324;SDS011;66387;53.440;10.390;2023-11-19T07:04:04;24.73;;;11.53;;
77324;SDS011;66387;53.440;10.390;2023-11-19T07:06:34;21.45;;;10.10;;
77324;SDS011;66387;53.440;10.390;2023-11-19T07:09:00;18.10;;;10.38;;
77324;SDS011;66387;53.440;10.390;2023-11-19T07:14:00;17.05;;;9.13;;
77324;SDS011;66387;53.440;10.390;2023-11-19T07:16:25;21.37;;;9.20;;
77324;SDS011;66387;53.440;10.390;2023-11-19T07:18:50;18.00;;;9.73;;
77324;SDS011;66387;53.440;10.390;2023-11-19T07:21:16;17.40;;;9.30;;
77324;SDS011;66387;53.440;10.390;2023-11-19T07:23:41;21.97;;;10.03;;
77324;SDS011;66387;53.440;10.390;2023-11-19T07:26:06;18.77;;;9.47;;
77324;SDS011;66387;53.440;10.390;2023-11-19T07:28:33;20.27;;;9.32;;
77324;SDS011;66387;53.440;10.390;2023-11-19T07:30:58;17.23;;;8.10;;
77324;SDS011;66387;53.440;10.390;2023-11-19T07:33:24;15.52;;;7.32;;
77324;SDS011;66387;53.440;10.390;2023-11-19T07:35:49;20.60;;;9.33;;
77324;SDS011;66387;53.440;10.390;2023-11-19T07:38:15;18.70;;;9.00;;
77324;SDS011;66387;53.440;10.390;2023-11-19T07:40:41;12.70;;;7.23;;
77324;SDS011;66387;53.440;10.390;2023-11-19T07:43:06;17.13;;;7.70;;
77324;SDS011;66387;53.440;10.390;2023-11-19T07:45:32;20.27;;;7.90;;
77324;SDS011;66387;53.440;10.390;2023-11-19T07:47:57;15.30;;;7.88;;
77324;SDS011;66387;53.440;10.390;2023-11-19T07:50:22;22.17;;;9.20;;
77324;SDS011;66387;53.440;10.390;2023-11-19T07:52:48;24.70;;;9.23;;
77324;SDS011;66387;53.440;10.390;2023-11-19T07:55:13;15.67;;;8.43;;
77324;SDS011;66387;53.440;10.390;2023-11-19T07:57:38;24.07;;;7.70;;
77324;SDS011;66387;53.440;10.390;2023-11-19T08:00:04;17.23;;;7.33;;
77324;SDS011;66387;53.440;10.390;2023-11-19T08:02:29;21.75;;;7.97;;
77324;SDS011;66387;53.440;10.390;2023-11-19T08:04:55;16.57;;;6.50;;
77324;SDS011;66387;53.440;10.390;2023-11-19T08:07:20;19.58;;;9.15;;
77324;SDS011;66387;53.440;10.390;2023-11-19T08:09:47;15.27;;;7.28;;
77324;SDS011;66387;53.440;10.390;2023-11-19T08:12:12;16.58;;;6.75;;
77324;SDS011;66387;53.440;10.390;2023-11-19T08:14:39;16.35;;;6.32;;
77324;SDS011;66387;53.440;10.390;2023-11-19T08:17:04;18.13;;;5.63;;
77324;SDS011;66387;53.440;10.390;2023-11-19T08:19:30;19.25;;;6.75;;
77324;SDS011;66387;53.440;10.390;2023-11-19T08:21:55;17.83;;;6.30;;
77324;SDS011;66387;53.440;10.390;2023-11-19T08:24:20;17.93;;;6.40;;
77324;SDS011;66387;53.440;10.390;2023-11-19T08:26:46;11.30;;;5.60;;
77324;SDS011;66387;53.440;10.390;2023-11-19T08:29:11;27.93;;;6.83;;
77324;SDS011;66387;53.440;10.390;2023-11-19T08:31:36;13.10;;;5.13;;
77324;SDS011;66387;53.440;10.390;2023-11-19T08:34:01;18.40;;;5.93;;
77324;SDS011;66387;53.440;10.390;2023-11-19T08:36:26;13.37;;;6.13;;
77324;SDS011;66387;53.440;10.390;2023-11-19T08:38:53;14.68;;;5.65;;
77324;SDS011;66387;53.440;10.390;2023-11-19T08:41:18;17.83;;;5.90;;
77324;SDS011;66387;53.440;10.390;2023-11-19T08:43:44;16.08;;;6.07;;
77324;SDS011;66387;53.440;10.390;2023-11-19T08:46:10;17.75;;;6.80;;
77324;SDS011;66387;53.440;10.390;2023-11-19T08:48:36;17.48;;;5.85;;
77324;SDS011;66387;53.440;10.390;2023-11-19T08:51:01;14.50;;;6.83;;
77324;SDS011;66387;53.440;10.390;2023-11-19T08:53:26;21.17;;;5.20;;
77324;SDS011;66387;53.440;10.390;2023-11-19T08:55:51;16.10;;;5.30;;
77324;SDS011;66387;53.440;10.390;2023-11-19T08:58:17;16.48;;;4.65;;
77324;SDS011;66387;53.440;10.390;2023-11-19T09:00:43;12.45;;;4.35;;
77324;SDS011;66387;53.440;10.390;2023-11-19T09:03:08;13.45;;;4.43;;
77324;SDS011;66387;53.440;10.390;2023-11-19T09:05:34;13.77;;;4.57;;
77324;SDS011;66387;53.440;10.390;2023-11-19T09:07:59;15.90;;;4.10;;
77324;SDS011;66387;53.440;10.390;2023-11-19T09:10:24;15.93;;;4.13;;
77324;SDS011;66387;53.440;10.390;2023-11-19T09:12:50;13.77;;;4.63;;
77324;SDS011;66387;53.440;10.390;2023-11-19T09:15:15;8.03;;;3.73;;
77324;SDS011;66387;53.440;10.390;2023-11-19T09:17:40;9.07;;;3.50;;
77324;SDS011;66387;53.440;10.390;2023-11-19T09:20:06;11.13;;;2.87;;
77324;SDS011;66387;53.440;10.390;2023-11-19T09:22:32;21.52;;;5.47;;
77324;SDS011;66387;53.440;10.390;2023-11-19T09:24:57;17.03;;;4.37;;
77324;SDS011;66387;53.440;10.390;2023-11-19T09:27:25;12.90;;;4.03;;
77324;SDS011;66387;53.440;10.390;2023-11-19T09:29:50;17.83;;;5.63;;
77324;SDS011;66387;53.440;10.390;2023-11-19T09:32:21;18.45;;;4.68;;
77324;SDS011;66387;53.440;10.390;2023-11-19T09:34:47;17.80;;;4.57;;
77324;SDS011;66387;53.440;10.390;2023-11-19T09:37:12;20.13;;;5.20;;
77324;SDS011;66387;53.440;10.390;2023-11-19T09:39:37;14.50;;;6.27;;
77324;SDS011;66387;53.440;10.390;2023-11-19T09:42:02;15.40;;;4.77;;
77324;SDS011;66387;53.440;10.390;2023-11-19T09:44:28;19.02;;;4.70;;
77324;SDS011;66387;53.440;10.390;2023-11-19T09:46:54;13.30;;;4.45;;
77324;SDS011;66387;53.440;10.390;2023-11-19T09:49:21;19.58;;;5.28;;
77324;SDS011;66387;53.440;10.390;2023-11-19T09:51:50;9.57;;;3.72;;
77324;SDS011;66387;53.440;10.390;2023-11-19T09:54:16;13.98;;;4.75;;
77324;SDS011;66387;53.440;10.390;2023-11-19T09:56:41;20.67;;;6.37;;
77324;SDS011;66387;53.440;10.390;2023-11-19T09:59:08;19.65;;;4.82;;
77324;SDS011;66387;53.440;10.390;2023-11-19T10:01:35;13.48;;;4.50;;
77324;SDS011;66387;53.440;10.390;2023-11-19T10:04:01;16.25;;;5.22;;
77324;SDS011;66387;53.440;10.390;2023-11-19T10:06:27;17.48;;;4.93;;
77324;SDS011;66387;53.440;10.390;2023-11-19T10:08:53;23.27;;;4.90;;
77324;SDS011;66387;53.440;10.390;2023-11-19T10:11:18;17.45;;;4.25;;
77324;SDS011;66387;53.440;10.390;2023-11-19T10:13:43;24.70;;;4.97;;
77324;SDS011;66387;53.440;10.390;2023-11-19T10:16:12;14.88;;;5.00;;
77324;SDS011;66387;53.440;10.390;2023-11-19T10:18:42;18.70;;;5.10;;
77324;SDS011;66387;53.440;10.390;2023-11-19T10:21:14;16.40;;;4.72;;
77324;SDS011;66387;53.440;10.390;2023-11-19T10:23:49;20.23;;;4.15;;
77324;SDS011;66387;53.440;10.390;2023-11-19T10:26:15;16.77;;;4.50;;
77324;SDS011;66387;53.440;10.390;2023-11-19T10:28:41;14.80;;;5.25;;
77324;SDS011;66387;53.440;10.390;2023-11-19T10:31:09;14.20;;;4.20;;
77324;SDS011;66387;53.440;10.390;2023-11-19T10:33:34;12.10;;;3.50;;
77324;SDS011;66387;53.440;10.390;2023-11-19T10:35:59;17.50;;;3.87;;
77324;SDS011;66387;53.440;10.390;2023-11-19T10:38:25;16.43;;;5.27;;
77324;SDS011;66387;53.440;10.390;2023-11-19T10:40:51;16.05;;;4.93;;
77324;SDS011;66387;53.440;10.390;2023-11-19T10:43:17;15.35;;;3.83;;
77324;SDS011;66387;53.440;10.390;2023-11-19T10:45:43;13.27;;;4.18;;
77324;SDS011;66387;53.440;10.390;2023-11-19T10:48:08;12.02;;;3.78;;
77324;SDS011;66387;53.440;10.390;2023-11-19T10:50:34;16.60;;;6.32;;
77324;SDS011;66387;53.440;10.390;2023-11-19T10:53:01;21.38;;;4.65;;
77324;SDS011;66387;53.440;10.390;2023-11-19T10:55:28;15.43;;;5.07;;
77324;SDS011;66387;53.440;10.390;2023-11-19T10:58:00;14.50;;;5.38;;
77324;SDS011;66387;53.440;10.390;2023-11-19T11:00:28;18.13;;;4.13;;
77324;SDS011;66387;53.440;10.390;2023-11-19T11:03:00;17.20;;;4.03;;
77324;SDS011;66387;53.440;10.390;2023-11-19T11:05:26;14.38;;;4.25;;
77324;SDS011;66387;53.440;10.390;2023-11-19T11:07:52;20.02;;;5.50;;
77324;SDS011;66387;53.440;10.390;2023-11-19T11:10:20;16.33;;;5.20;;
77324;SDS011;66387;53.440;10.390;2023-11-19T11:12:51;25.90;;;5.95;;
77324;SDS011;66387;53.440;10.390;2023-11-19T11:15:22;19.92;;;4.60;;
77324;SDS011;66387;53.440;10.390;2023-11-19T11:17:49;20.08;;;4.93;;
77324;SDS011;66387;53.440;10.390;2023-11-19T11:20:19;18.27;;;4.90;;
77324;SDS011;66387;53.440;10.390;2023-11-19T11:22:49;23.53;;;5.93;;
77324;SDS011;66387;53.440;10.390;2023-11-19T11:28:31;18.02;;;4.95;;
77324;SDS011;66387;53.440;10.390;2023-11-19T11:31:08;22.17;;;4.78;;
77324;SDS011;66387;53.440;10.390;2023-11-19T11:36:52;16.48;;;4.70;;
77324;SDS011;66387;53.440;10.390;2023-11-19T11:39:23;19.15;;;4.55;;
77324;SDS011;66387;53.440;10.390;2023-11-19T11:42:18;19.23;;;6.07;;
77324;SDS011;66387;53.440;10.390;2023-11-19T11:50:12;19.52;;;5.20;;
77324;SDS011;66387;53.440;10.390;2023-11-19T11:55:24;17.63;;;6.03;;
77324;SDS011;66387;53.440;10.390;2023-11-19T11:57:55;15.32;;;3.95;;
77324;SDS011;66387;53.440;10.390;2023-11-19T12:00:21;27.00;;;5.30;;
77324;SDS011;66387;53.440;10.390;2023-11-19T12:03:08;17.55;;;4.55;;
77324;SDS011;66387;53.440;10.390;2023-11-19T12:05:43;17.17;;;5.20;;
77324;SDS011;66387;53.440;10.390;2023-11-19T12:08:10;15.00;;;4.47;;
77324;SDS011;66387;53.440;10.390;2023-11-19T12:10:37;20.98;;;3.90;;
77324;SDS011;66387;53.440;10.390;2023-11-19T12:13:09;12.30;;;5.47;;
77324;SDS011;66387;53.440;10.390;2023-11-19T12:18:24;19.20;;;5.32;;
77324;SDS011;66387;53.440;10.390;2023-11-19T12:20:51;13.18;;;5.03;;
77324;SDS011;66387;53.440;10.390;2023-11-19T12:23:16;21.17;;;9.05;;
77324;SDS011;66387;53.440;10.390;2023-11-19T12:25:42;23.33;;;14.00;;
77324;SDS011;66387;53.440;10.390;2023-11-19T12:28:13;25.33;;;9.70;;
77324;SDS011;66387;53.440;10.390;2023-11-19T12:30:39;18.00;;;7.10;;
77324;SDS011;66387;53.440;10.390;2023-11-19T12:33:07;42.50;;;19.23;;
77324;SDS011;66387;53.440;10.390;2023-11-19T12:35:39;24.45;;;7.85;;
77324;SDS011;66387;53.440;10.390;2023-11-19T12:38:05;17.83;;;5.97;;
77324;SDS011;66387;53.440;10.390;2023-11-19T12:40:31;15.53;;;5.13;;
77324;SDS011;66387;53.440;10.390;2023-11-19T12:42:56;17.23;;;5.30;;
77324;SDS011;66387;53.440;10.390;2023-11-19T12:45:22;12.77;;;4.38;;
77324;SDS011;66387;53.440;10.390;2023-11-19T12:47:48;13.88;;;4.80;;
77324;SDS011;66387;53.440;10.390;2023-11-19T12:50:15;19.10;;;6.10;;
77324;SDS011;66387;53.440;10.390;2023-11-19T12:52:42;11.27;;;4.40;;
77324;SDS011;66387;53.440;10.390;2023-11-19T12:55:29;15.30;;;5.20;;
77324;SDS011;66387;53.440;10.390;2023-11-19T12:57:55;16.80;;;4.32;;
77324;SDS011;66387;53.440;10.390;2023-11-19T13:00:21;15.02;;;3.92;;
77324;SDS011;66387;53.440;10.390;2023-11-19T13:02:51;8.95;;;3.80;;
77324;SDS011;66387;53.440;10.390;2023-11-19T13:10:30;23.90;;;8.70;;
77324;SDS011;66387;53.440;10.390;2023-11-19T13:13:06;31.00;;;11.75;;
77324;SDS011;66387;53.440;10.390;2023-11-19T13:15:33;21.60;;;6.70;;
77324;SDS011;66387;53.440;10.390;2023-11-19T13:17:59;14.75;;;4.72;;
77324;SDS011;66387;53.440;10.390;2023-11-19T13:20:25;19.92;;;5.35;;
77324;SDS011;66387;53.440;10.390;2023-11-19T13:23:00;34.93;;;11.10;;
77324;SDS011;66387;53.440;10.390;2023-11-19T13:25:29;21.60;;;5.82;;
77324;SDS011;66387;53.440;10.390;2023-11-19T13:27:55;20.27;;;5.35;;
77324;SDS011;66387;53.440;10.390;2023-11-19T13:30:21;29.13;;;13.05;;
77324;SDS011;66387;53.440;10.390;2023-11-19T13:32:47;13.02;;;4.63;;
77324;SDS011;66387;53.440;10.390;2023-11-19T13:35:13;18.38;;;7.82;;
77324;SDS011;66387;53.440;10.390;2023-11-19T13:37:39;22.58;;;4.68;;
77324;SDS011;66387;53.440;10.390;2023-11-19T13:40:05;17.75;;;6.03;;
77324;SDS011;66387;53.440;10.390;2023-11-19T13:42:32;17.58;;;4.35;;
77324;SDS011;66387;53.440;10.390;2023-11-19T13:44:57;25.77;;;10.27;;
77324;SDS011;66387;53.440;10.390;2023-11-19T13:47:22;18.63;;;5.97;;
77324;SDS011;66387;53.440;10.390;2023-11-19T13:49:48;14.65;;;5.40;;
77324;SDS011;66387;53.440;10.390;2023-11-19T13:52:14;12.43;;;5.28;;
77324;SDS011;66387;53.440;10.390;2023-11-19T13:54:39;18.87;;;6.47;;
77324;SDS011;66387;53.440;10.390;2023-11-19T13:57:04;15.60;;;4.60;;
77324;SDS011;66387;53.440;10.390;2023-11-19T13:59:33;16.92;;;6.95;;
77324;SDS011;66387;53.440;10.390;2023-11-19T14:01:58;16.85;;;7.55;;
77324;SDS011;66387;53.440;10.390;2023-11-19T14:04:23;16.13;;;8.57;;
77324;SDS011;66387;53.440;10.390;2023-11-19T14:06:50;11.15;;;4.30;;
77324;SDS011;66387;53.440;10.390;2023-11-19T14:09:15;20.58;;;5.43;;
77324;SDS011;66387;53.440;10.390;2023-11-19T14:11:41;11.07;;;4.47;;
77324;SDS011;66387;53.440;10.390;2023-11-19T14:14:07;10.13;;;3.97;;
77324;SDS011;66387;53.440;10.390;2023-11-19T14:16:33;15.02;;;4.30;;
77324;SDS011;66387;53.440;10.390;2023-11-19T14:18:59;13.88;;;4.97;;
77324;SDS011;66387;53.440;10.390;2023-11-19T14:21:24;18.90;;;5.17;;
77324;SDS011;66387;53.440;10.390;2023-11-19T14:23:51;21.65;;;6.88;;
77324;SDS011;66387;53.440;10.390;2023-11-19T14:26:17;17.85;;;4.90;;
77324;SDS011;66387;53.440;10.390;2023-11-19T14:28:42;16.10;;;6.37;;
77324;SDS011;66387;53.440;10.390;2023-11-19T14:31:07;16.60;;;4.73;;
77324;SDS011;66387;53.440;10.390;2023-11-19T14:33:32;12.93;;;5.03;;
77324;SDS011;66387;53.440;10.390;2023-11-19T14:36:00;11.07;;;4.43;;
77324;SDS011;66387;53.440;10.390;2023-11-19T14:38:25;12.67;;;4.60;;
77324;SDS011;66387;53.440;10.390;2023-11-19T14:40:50;11.30;;;4.43;;
77324;SDS011;66387;53.440;10.390;2023-11-19T14:43:16;17.13;;;5.53;;
77324;SDS011;66387;53.440;10.390;2023-11-19T14:45:41;14.45;;;5.68;;
77324;SDS011;66387;53.440;10.390;2023-11-19T14:48:06;23.57;;;11.10;;
77324;SDS011;66387;53.440;10.390;2023-11-19T14:50:32;12.27;;;5.13;;
77324;SDS011;66387;53.440;10.390;2023-11-19T14:52:57;20.07;;;4.93;;
77324;SDS011;66387;53.440;10.390;2023-11-19T14:55:23;19.40;;;6.25;;
77324;SDS011;66387;53.440;10.390;2023-11-19T14:57:48;22.93;;;7.70;;